Time;durP1;ratioP1;P1;durP2;ratioP2;P2;SDS_P1;SDS_P2;PMS_P1;PMS_P2;Temp;Humidity;BMP_temperature;BMP_pressure;BME280_temperature;BME280_humidity;BME280_pressure;Samples;Min_cycle;Max_cycle;Signal;HPM_P1;HPM_P2
2022/03/29 00:01:09;;;;;;;30.20;20.45;;;6.70;99.90;;;;;;5038729;28;20448;-85
2022/03/29 00:03:35;;;;;;;33.35;20.08;;;6.60;99.90;;;;;;5038589;28;20306;-85
2022/03/29 00:06:06;;;;;;;34.33;20.58;;;6.60;99.90;;;;;;5053045;28;20589;-86
2022/03/29 00:08:32;;;;;;;32.85;22.20;;;6.60;99.90;;;;;;5056829;28;20037;-86
2022/03/29 00:10:58;;;;;;;30.58;20.50;;;6.70;99.90;;;;;;5052568;28;20051;-87
2022/03/29 00:13:24;;;;;;;31.33;20.63;;;6.60;99.90;;;;;;5053748;28;20121;-85
2022/03/29 00:15:55;;;;;;;32.67;20.58;;;6.60;99.90;;;;;;5053147;28;20063;-85
2022/03/29 00:18:21;;;;;;;33.03;20.63;;;6.70;99.90;;;;;;5051727;28;20135;-86
2022/03/29 00:20:49;;;;;;;35.47;21.42;;;6.70;99.90;;;;;;5038313;28;20044;-87
2022/03/29 00:23:15;;;;;;;33.00;21.30;;;6.60;99.90;;;;;;5054780;28;20044;-87
2022/03/29 00:25:41;;;;;;;32.92;22.10;;;6.70;99.90;;;;;;5039862;28;20098;-85
2022/03/29 00:28:06;;;;;;;34.75;22.48;;;6.70;99.90;;;;;;5054519;28;20570;-85
2022/03/29 00:30:35;;;;;;;33.60;22.35;;;6.70;99.90;;;;;;5050970;28;20051;-86
2022/03/29 00:33:03;;;;;;;32.67;20.98;;;6.70;99.90;;;;;;5038138;28;20167;-86
2022/03/29 00:35:32;;;;;;;35.30;21.85;;;6.70;99.90;;;;;;5038876;28;20036;-86
2022/03/29 00:38:01;;;;;;;38.13;22.33;;;6.70;99.90;;;;;;5039209;28;20416;-85
2022/03/29 00:40:41;;;;;;;33.85;22.05;;;6.70;99.90;;;;;;5038426;28;20036;-85
2022/03/29 00:43:17;;;;;;;39.85;21.85;;;6.80;99.90;;;;;;5040167;28;20039;-86
2022/03/29 00:45:45;;;;;;;32.17;22.35;;;6.70;99.90;;;;;;5054647;28;20109;-86
2022/03/29 00:48:12;;;;;;;38.15;21.50;;;6.70;99.90;;;;;;5056626;28;20040;-85
2022/03/29 00:50:47;;;;;;;33.13;20.95;;;6.70;99.90;;;;;;5037920;28;20515;-86
2022/03/29 00:53:34;;;;;;;33.40;21.95;;;6.70;99.90;;;;;;5035766;28;20045;-85
2022/03/29 00:56:06;;;;;;;35.28;20.35;;;6.70;99.90;;;;;;5071225;28;20116;-86
2022/03/29 00:58:34;;;;;;;36.75;21.80;;;6.80;99.90;;;;;;5054356;28;20489;-86
2022/03/29 01:01:10;;;;;;;34.78;21.50;;;6.80;99.90;;;;;;5054512;28;20048;-85
2022/03/29 01:03:41;;;;;;;33.42;21.33;;;6.80;99.90;;;;;;5038122;28;20500;-86
2022/03/29 01:06:16;;;;;;;34.42;22.40;;;6.70;99.90;;;;;;5056567;28;20136;-86
2022/03/29 01:08:44;;;;;;;36.65;21.02;;;6.80;99.90;;;;;;5056631;28;20134;-86
2022/03/29 01:11:12;;;;;;;35.38;21.02;;;6.70;99.90;;;;;;5052483;28;20135;-86
2022/03/29 01:13:41;;;;;;;35.05;21.48;;;6.80;99.90;;;;;;5055811;28;20115;-86
2022/03/29 01:19:07;;;;;;;33.17;21.30;;;6.90;99.90;;;;;;5052444;28;20032;-85
2022/03/29 01:21:37;;;;;;;32.60;21.20;;;6.90;99.90;;;;;;5038296;28;20101;-86
2022/03/29 01:24:04;;;;;;;35.17;21.63;;;6.90;99.90;;;;;;5034948;28;20098;-85
2022/03/29 01:26:30;;;;;;;36.83;21.67;;;6.90;99.90;;;;;;5039207;28;20438;-86
2022/03/29 01:28:57;;;;;;;30.10;19.75;;;6.90;99.90;;;;;;5055671;28;20036;-85
2022/03/29 01:31:25;;;;;;;28.70;20.30;;;6.90;99.90;;;;;;5053338;28;20053;-86
2022/03/29 01:33:54;;;;;;;30.98;20.48;;;6.90;99.90;;;;;;5034922;28;20602;-86
2022/03/29 01:36:19;;;;;;;35.10;21.92;;;6.90;99.90;;;;;;5053816;28;20141;-86
2022/03/29 01:38:46;;;;;;;34.30;21.38;;;6.90;99.90;;;;;;5042949;28;20044;-87
2022/03/29 01:41:12;;;;;;;35.83;20.67;;;6.90;99.90;;;;;;5053757;28;20056;-86
2022/03/29 01:43:38;;;;;;;31.17;20.55;;;6.90;99.90;;;;;;5035979;28;20631;-86
2022/03/29 01:46:04;;;;;;;31.88;20.95;;;6.90;99.90;;;;;;5036770;28;20284;-86
2022/03/29 01:48:30;;;;;;;31.90;20.65;;;6.90;99.90;;;;;;5038320;28;20044;-85
2022/03/29 01:50:56;;;;;;;34.83;22.15;;;6.90;99.90;;;;;;5037768;28;20045;-86
2022/03/29 01:53:26;;;;;;;33.22;21.75;;;7.00;99.90;;;;;;5039660;28;20041;-86
2022/03/29 01:55:57;;;;;;;30.20;20.60;;;6.90;99.90;;;;;;5054192;28;20428;-85
2022/03/29 01:58:27;;;;;;;32.55;22.05;;;6.90;99.90;;;;;;5051601;28;20044;-85
2022/03/29 02:00:53;;;;;;;31.55;20.27;;;7.00;99.90;;;;;;5037506;28;20028;-85
2022/03/29 02:03:22;;;;;;;35.60;21.73;;;6.90;99.90;;;;;;5037759;28;20032;-85
2022/03/29 02:05:48;;;;;;;32.85;21.80;;;6.90;99.90;;;;;;5058107;28;20496;-85
2022/03/29 02:08:14;;;;;;;34.13;22.48;;;7.00;99.90;;;;;;5042484;28;20614;-86
2022/03/29 02:10:40;;;;;;;33.00;21.48;;;6.90;99.90;;;;;;5055697;28;20076;-85
2022/03/29 02:13:09;;;;;;;37.63;21.45;;;6.90;99.90;;;;;;5041593;28;20128;-86
2022/03/29 02:15:44;;;;;;;36.15;21.33;;;6.90;99.90;;;;;;5075175;28;20115;-85
2022/03/29 02:18:13;;;;;;;41.80;22.08;;;6.80;99.90;;;;;;5038064;28;20032;-86
2022/03/29 02:20:47;;;;;;;35.03;21.80;;;6.70;99.90;;;;;;5042157;28;20028;-86
2022/03/29 02:23:15;;;;;;;39.63;23.87;;;6.70;99.90;;;;;;5056508;28;20122;-85
2022/03/29 02:25:45;;;;;;;37.28;22.23;;;6.70;99.90;;;;;;5040371;28;20048;-86
2022/03/29 02:28:18;;;;;;;33.63;21.52;;;6.60;99.90;;;;;;5055688;28;20079;-85
2022/03/29 02:30:44;;;;;;;34.30;22.10;;;6.70;99.90;;;;;;5053003;28;20044;-85
2022/03/29 02:33:18;;;;;;;35.15;21.50;;;6.70;99.90;;;;;;5042855;28;20036;-86
2022/03/29 02:35:49;;;;;;;38.28;21.90;;;6.70;99.90;;;;;;5041305;28;20099;-87
2022/03/29 02:38:17;;;;;;;36.95;21.52;;;6.70;99.90;;;;;;5038950;28;20044;-86
2022/03/29 02:40:44;;;;;;;38.05;21.70;;;6.70;99.90;;;;;;5055197;28;20149;-86
2022/03/29 02:43:10;;;;;;;37.47;22.05;;;6.70;99.90;;;;;;5055228;28;20428;-86
2022/03/29 02:45:42;;;;;;;36.08;21.83;;;6.70;99.90;;;;;;5038935;28;20032;-86
2022/03/29 02:48:07;;;;;;;34.88;22.35;;;6.60;99.90;;;;;;5039728;28;20028;-86
2022/03/29 02:50:33;;;;;;;36.95;22.40;;;6.70;99.90;;;;;;5039322;28;20442;-86
2022/03/29 02:53:01;;;;;;;34.83;20.98;;;6.70;99.90;;;;;;5039751;28;20043;-85
2022/03/29 02:55:34;;;;;;;35.67;22.48;;;6.60;99.90;;;;;;5040215;28;20036;-85
2022/03/29 02:58:09;;;;;;;37.53;23.33;;;6.60;99.90;;;;;;5053100;28;20033;-86
2022/03/29 03:00:41;;;;;;;40.15;23.42;;;6.60;99.90;;;;;;5040456;28;20032;-85
2022/03/29 03:03:07;;;;;;;35.75;21.70;;;6.50;99.90;;;;;;5039104;28;20040;-85
2022/03/29 03:05:36;;;;;;;37.10;22.48;;;6.50;99.90;;;;;;5054054;28;20059;-86
2022/03/29 03:08:02;;;;;;;31.63;20.88;;;6.50;99.90;;;;;;5057766;28;20446;-86
2022/03/29 03:10:28;;;;;;;32.97;22.38;;;6.50;99.90;;;;;;5040529;28;20033;-85
2022/03/29 03:12:57;;;;;;;34.90;21.73;;;6.50;99.90;;;;;;5039749;28;20041;-85
2022/03/29 03:15:25;;;;;;;36.25;21.35;;;6.50;99.90;;;;;;5038310;28;20137;-85
2022/03/29 03:17:54;;;;;;;34.03;21.83;;;6.50;99.90;;;;;;5037058;28;20031;-85
2022/03/29 03:20:21;;;;;;;43.72;22.40;;;6.50;99.90;;;;;;5054213;28;20111;-85
2022/03/29 03:22:59;;;;;;;37.08;22.00;;;6.40;99.90;;;;;;5055658;28;20040;-86
2022/03/29 03:25:33;;;;;;;35.45;21.27;;;6.50;99.90;;;;;;5037913;28;20458;-86
2022/03/29 03:27:59;;;;;;;39.25;22.35;;;6.50;99.90;;;;;;5057140;28;20573;-85
2022/03/29 03:30:24;;;;;;;35.53;21.67;;;6.50;99.90;;;;;;5036887;28;20127;-86
2022/03/29 03:32:53;;;;;;;38.28;22.30;;;6.50;99.90;;;;;;5055164;28;20441;-86
2022/03/29 03:35:19;;;;;;;36.17;22.15;;;6.40;99.90;;;;;;5038091;28;20032;-86
2022/03/29 03:37:49;;;;;;;36.63;22.23;;;6.50;99.90;;;;;;5036498;28;20029;-86
2022/03/29 03:40:14;;;;;;;40.15;23.27;;;6.40;99.90;;;;;;5038734;28;21077;-86
2022/03/29 03:42:41;;;;;;;38.78;23.05;;;6.40;99.90;;;;;;5039512;28;20037;-86
2022/03/29 03:45:11;;;;;;;40.13;23.75;;;6.40;99.90;;;;;;5052992;28;20036;-86
2022/03/29 03:47:49;;;;;;;39.92;22.85;;;6.40;99.90;;;;;;5054932;28;20044;-86
2022/03/29 03:50:15;;;;;;;37.45;23.02;;;6.40;99.90;;;;;;5052957;28;20123;-86
2022/03/29 03:52:49;;;;;;;34.30;21.48;;;6.40;99.90;;;;;;5036390;28;20036;-86
2022/03/29 03:55:15;;;;;;;38.75;22.58;;;6.50;99.90;;;;;;5038030;28;20545;-85
2022/03/29 03:57:41;;;;;;;41.00;22.20;;;6.40;99.90;;;;;;5039327;28;20254;-85
2022/03/29 04:00:11;;;;;;;41.85;22.48;;;6.40;99.90;;;;;;5053459;28;20527;-85
2022/03/29 04:02:37;;;;;;;38.92;21.85;;;6.50;99.90;;;;;;5054986;28;20285;-86
2022/03/29 04:05:12;;;;;;;36.20;22.30;;;6.50;99.90;;;;;;5071351;28;20048;-86
2022/03/29 04:07:38;;;;;;;41.80;22.27;;;6.50;99.90;;;;;;5040785;28;20063;-86
2022/03/29 04:10:08;;;;;;;38.17;22.30;;;6.50;99.90;;;;;;5037971;28;20124;-87
2022/03/29 04:12:34;;;;;;;35.95;22.38;;;6.50;99.90;;;;;;5055805;28;20169;-86
2022/03/29 04:15:00;;;;;;;40.40;23.17;;;6.50;99.90;;;;;;5039389;28;20517;-86
2022/03/29 04:17:26;;;;;;;37.40;21.65;;;6.50;99.90;;;;;;5040131;28;20040;-86
2022/03/29 04:20:01;;;;;;;36.00;22.63;;;6.50;99.90;;;;;;5051493;28;20033;-86
2022/03/29 04:22:27;;;;;;;;;;;6.60;99.90;;;;;;5036776;28;20043;-86
2022/03/29 04:24:55;;;;;;;35.00;21.30;;;6.60;99.90;;;;;;5039347;28;20030;-87
2022/03/29 04:27:21;;;;;;;36.95;21.65;;;6.60;99.90;;;;;;5053390;28;20391;-86
2022/03/29 04:29:49;;;;;;;42.20;21.80;;;6.60;99.90;;;;;;5036613;28;20553;-86
2022/03/29 04:32:15;;;;;;;45.10;22.95;;;6.60;99.90;;;;;;5055405;28;20545;-86
2022/03/29 04:34:40;;;;;;;37.88;21.90;;;6.60;99.90;;;;;;5052188;28;20048;-86
2022/03/29 04:37:06;;;;;;;37.95;21.45;;;6.60;99.90;;;;;;5038598;28;20043;-86
2022/03/29 04:39:32;;;;;;;34.63;22.15;;;6.60;99.90;;;;;;5038669;28;20032;-86
2022/03/29 04:41:58;;;;;;;39.30;22.25;;;6.60;99.90;;;;;;5036665;28;20032;-86
2022/03/29 04:44:24;;;;;;;39.35;22.65;;;6.60;99.90;;;;;;5036741;28;20036;-86
2022/03/29 04:46:50;;;;;;;36.13;21.58;;;6.60;99.90;;;;;;5036537;28;20075;-85
2022/03/29 04:49:35;;;;;;;39.55;21.80;;;6.50;99.90;;;;;;5037665;28;20466;-86
2022/03/29 04:52:14;;;;;;;37.30;22.02;;;6.60;99.90;;;;;;5053240;28;20037;-87
2022/03/29 04:54:40;;;;;;;37.97;22.17;;;6.60;99.90;;;;;;5054612;28;20043;-86
2022/03/29 04:57:05;;;;;;;39.40;22.70;;;6.60;99.90;;;;;;5053768;28;20025;-86
2022/03/29 04:59:31;;;;;;;43.97;22.67;;;6.50;99.90;;;;;;5037476;28;20037;-86
2022/03/29 05:02:00;;;;;;;39.17;23.33;;;6.50;99.90;;;;;;5054869;28;20037;-85
2022/03/29 05:04:34;;;;;;;40.40;22.35;;;6.50;99.90;;;;;;5036887;28;20063;-86
2022/03/29 05:07:03;;;;;;;39.60;24.10;;;6.50;99.90;;;;;;5054185;28;20479;-86
2022/03/29 05:09:36;;;;;;;42.15;22.48;;;6.50;99.90;;;;;;5052610;28;20123;-86
2022/03/29 05:12:11;;;;;;;45.28;22.92;;;6.50;99.90;;;;;;5052735;28;20123;-86
2022/03/29 05:14:40;;;;;;;42.10;24.45;;;6.50;99.90;;;;;;5037492;28;20509;-86
2022/03/29 05:17:06;;;;;;;42.15;23.98;;;6.50;99.90;;;;;;5038166;28;20124;-86
2022/03/29 05:19:31;;;;;;;39.97;24.65;;;6.50;99.90;;;;;;5037916;28;20474;-85
2022/03/29 05:21:57;;;;;;;44.08;23.48;;;6.60;99.90;;;;;;5056002;28;20028;-86
2022/03/29 05:24:23;;;;;;;38.15;23.85;;;6.60;99.90;;;;;;5040739;28;20040;-86
2022/03/29 05:26:48;;;;;;;34.38;22.33;;;6.60;99.90;;;;;;5039767;28;20111;-86
2022/03/29 05:29:20;;;;;;;40.47;22.30;;;6.60;99.90;;;;;;5056262;28;20044;-86
2022/03/29 05:31:46;;;;;;;37.55;21.73;;;6.60;99.90;;;;;;5044849;28;20190;-84
2022/03/29 05:34:13;;;;;;;33.75;20.42;;;6.70;99.90;;;;;;5050570;28;20040;-86
2022/03/29 05:36:44;;;;;;;39.22;21.27;;;6.70;99.90;;;;;;5055270;28;20053;-86
2022/03/29 05:39:16;;;;;;;36.80;22.48;;;6.70;99.90;;;;;;5053036;28;20114;-86
2022/03/29 05:41:43;;;;;;;36.58;21.77;;;6.70;99.90;;;;;;5039430;28;20566;-86
2022/03/29 05:44:11;;;;;;;38.47;22.05;;;6.70;99.90;;;;;;5040055;28;20352;-86
2022/03/29 05:49:26;;;;;;;44.08;22.23;;;6.70;99.90;;;;;;5051502;28;20403;-86
2022/03/29 05:51:52;;;;;;;39.50;22.95;;;6.80;99.90;;;;;;5037939;28;20090;-86
2022/03/29 05:54:18;;;;;;;37.15;22.10;;;6.80;99.90;;;;;;5038641;28;20040;-85
2022/03/29 05:56:44;;;;;;;39.55;21.83;;;6.80;99.90;;;;;;5051184;28;20397;-87
2022/03/29 05:59:10;;;;;;;33.95;22.15;;;6.80;99.90;;;;;;5035579;28;20068;-85
2022/03/29 06:01:37;;;;;;;38.03;23.15;;;6.80;99.90;;;;;;5050106;28;20059;-86
2022/03/29 06:04:12;;;;;;;39.03;21.58;;;6.80;99.90;;;;;;5052060;28;20166;-86
2022/03/29 06:06:46;;;;;;;35.08;21.70;;;6.90;99.90;;;;;;5055629;28;20436;-85
2022/03/29 06:09:11;;;;;;;34.20;21.60;;;6.90;99.90;;;;;;5055408;28;20032;-86
2022/03/29 06:11:37;;;;;;;38.58;22.80;;;6.90;99.90;;;;;;5052953;28;20048;-86
2022/03/29 06:14:06;;;;;;;39.90;22.30;;;6.80;99.90;;;;;;5035615;28;20048;-86
2022/03/29 06:16:34;;;;;;;38.38;22.40;;;6.90;99.90;;;;;;5036412;28;20044;-85
2022/03/29 06:19:00;;;;;;;34.92;22.52;;;6.90;99.90;;;;;;5055030;28;20105;-86
2022/03/29 06:21:28;;;;;;;38.85;22.58;;;6.90;99.90;;;;;;5039973;28;20057;-86
2022/03/29 06:23:54;;;;;;;38.28;22.27;;;7.00;99.90;;;;;;5035997;28;20071;-84
2022/03/29 06:26:20;;;;;;;38.00;22.88;;;7.00;99.90;;;;;;5039259;28;20072;-85
2022/03/29 06:28:50;;;;;;;41.33;23.08;;;7.00;99.90;;;;;;5053178;28;20098;-85
2022/03/29 06:31:16;;;;;;;34.53;22.38;;;7.00;99.90;;;;;;5032290;28;20039;-86
2022/03/29 06:33:41;;;;;;;39.17;23.02;;;7.00;99.90;;;;;;5054528;28;20403;-86
2022/03/29 06:36:07;;;;;;;40.60;21.80;;;7.00;99.90;;;;;;5053185;28;20563;-86
2022/03/29 06:38:33;;;;;;;38.10;22.10;;;7.10;99.90;;;;;;5052426;28;20344;-86
2022/03/29 06:40:59;;;;;;;40.58;24.20;;;7.10;99.90;;;;;;5051652;28;20039;-86
2022/03/29 06:43:27;;;;;;;38.63;22.35;;;7.10;99.90;;;;;;5038364;28;20896;-86
2022/03/29 06:45:53;;;;;;;33.88;21.85;;;7.20;99.90;;;;;;5056182;28;20116;-87
2022/03/29 06:48:23;;;;;;;41.15;24.02;;;7.20;99.90;;;;;;5038596;28;20047;-86
2022/03/29 06:50:48;;;;;;;39.92;22.92;;;7.20;99.90;;;;;;5057669;28;20047;-85
2022/03/29 06:53:15;;;;;;;40.97;24.40;;;7.20;99.90;;;;;;5040496;28;20041;-86
2022/03/29 06:55:41;;;;;;;37.42;23.05;;;7.20;99.90;;;;;;5056685;28;20191;-87
2022/03/29 06:58:09;;;;;;;37.67;23.33;;;7.20;99.90;;;;;;5027574;28;20032;-86
2022/03/29 07:00:39;;;;;;;37.40;23.83;;;7.10;99.90;;;;;;5038958;28;20033;-86
2022/03/29 07:03:08;;;;;;;44.15;24.70;;;7.20;99.90;;;;;;5041804;28;20045;-86
2022/03/29 07:05:36;;;;;;;42.70;26.05;;;7.10;99.90;;;;;;5053225;28;20147;-86
2022/03/29 07:08:06;;;;;;;41.85;24.35;;;7.10;99.90;;;;;;5045745;28;20472;-87
2022/03/29 07:13:22;;;;;;;45.03;24.77;;;7.00;99.90;;;;;;5057906;28;20056;-86
2022/03/29 07:15:57;;;;;;;41.72;24.92;;;7.10;99.90;;;;;;5040952;28;20277;-86
2022/03/29 07:18:22;;;;;;;41.70;25.00;;;7.20;99.90;;;;;;5041100;28;20044;-86
2022/03/29 07:20:51;;;;;;;47.22;25.67;;;7.10;99.90;;;;;;5055839;28;20390;-86
2022/03/29 07:23:19;;;;;;;43.83;26.13;;;7.10;99.90;;;;;;5041633;28;20083;-85
2022/03/29 07:25:45;;;;;;;43.78;26.95;;;7.20;99.90;;;;;;5041726;28;20392;-87
2022/03/29 07:28:14;;;;;;;48.45;25.20;;;7.20;99.90;;;;;;5042100;28;20044;-85
2022/03/29 07:30:43;;;;;;;43.97;25.90;;;7.20;99.90;;;;;;5040163;28;20044;-86
2022/03/29 07:33:13;;;;;;;45.45;26.00;;;7.20;99.90;;;;;;5053480;28;20106;-86
2022/03/29 07:35:45;;;;;;;41.28;24.50;;;7.20;99.90;;;;;;5041946;28;20048;-86
2022/03/29 07:38:16;;;;;;;41.30;25.73;;;7.20;99.90;;;;;;5058759;28;20607;-86
2022/03/29 07:41:00;;;;;;;41.35;25.92;;;7.20;99.90;;;;;;5041823;28;20093;-84
2022/03/29 07:43:26;;;;;;;46.83;26.67;;;7.30;99.90;;;;;;5024989;28;20493;-86
2022/03/29 07:45:51;;;;;;;45.65;26.55;;;7.30;99.90;;;;;;5039363;28;20044;-86
2022/03/29 07:48:17;;;;;;;49.03;26.67;;;7.40;99.90;;;;;;5041368;28;20048;-85
2022/03/29 07:50:47;;;;;;;44.92;25.85;;;7.30;99.90;;;;;;5040922;28;20044;-86
2022/03/29 07:53:16;;;;;;;46.55;26.35;;;7.30;99.90;;;;;;5041722;28;20605;-87
2022/03/29 07:55:41;;;;;;;47.08;26.77;;;7.40;99.90;;;;;;5052389;28;20520;-87
2022/03/29 07:58:10;;;;;;;43.20;26.20;;;7.50;99.90;;;;;;5061888;28;20059;-85
2022/03/29 08:00:36;;;;;;;48.05;25.83;;;7.60;99.90;;;;;;5054262;28;20472;-86
2022/03/29 08:03:11;;;;;;;40.65;25.58;;;7.70;99.90;;;;;;5041990;28;20044;-86
2022/03/29 08:05:41;;;;;;;45.15;26.33;;;7.80;99.90;;;;;;5054555;28;20364;-86
2022/03/29 08:08:10;;;;;;;42.42;25.85;;;7.90;99.90;;;;;;5056450;28;20115;-85
2022/03/29 08:10:36;;;;;;;46.83;25.83;;;7.90;99.90;;;;;;5053882;28;20095;-86
2022/03/29 08:13:05;;;;;;;41.15;25.58;;;8.00;99.90;;;;;;5055206;28;20048;-87
2022/03/29 08:15:35;;;;;;;46.60;25.55;;;8.20;99.90;;;;;;5039918;28;20536;-85
2022/03/29 08:18:01;;;;;;;41.13;24.50;;;8.20;99.90;;;;;;5041917;28;20040;-86
2022/03/29 08:20:27;;;;;;;40.88;23.80;;;8.30;99.90;;;;;;5039851;28;20043;-86
2022/03/29 08:23:05;;;;;;;37.65;22.90;;;8.40;99.90;;;;;;5037795;28;20048;-86
2022/03/29 08:25:36;;;;;;;40.70;22.58;;;8.40;99.90;;;;;;5040499;28;20032;-86
2022/03/29 08:28:05;;;;;;;40.53;23.70;;;8.50;99.90;;;;;;5040733;28;20904;-87
2022/03/29 08:30:32;;;;;;;38.03;23.63;;;8.70;99.90;;;;;;5034471;28;20471;-86
2022/03/29 08:33:00;;;;;;;36.03;20.20;;;8.60;99.90;;;;;;5041454;28;20408;-85
2022/03/29 08:35:38;;;;;;;36.28;21.17;;;8.70;99.90;;;;;;5052235;28;20194;-86
2022/03/29 08:38:04;;;;;;;39.30;22.08;;;8.70;99.90;;;;;;5042616;28;20051;-86
2022/03/29 08:40:30;;;;;;;34.80;22.05;;;8.60;99.90;;;;;;5040723;28;20059;-86
2022/03/29 08:43:00;;;;;;;36.42;21.73;;;8.80;99.90;;;;;;5040915;28;20103;-86
2022/03/29 08:45:29;;;;;;;36.35;21.75;;;8.60;91.20;;;;;;5056332;28;20407;-86
2022/03/29 08:47:56;;;;;;;40.03;22.25;;;8.50;99.90;;;;;;5040380;28;20932;-86
2022/03/29 08:50:28;;;;;;;41.83;22.73;;;8.80;99.90;;;;;;5039983;28;20042;-85
2022/03/29 08:52:54;;;;;;;40.08;22.25;;;9.00;97.20;;;;;;5053136;28;20105;-86
2022/03/29 08:55:22;;;;;;;34.58;21.70;;;8.90;99.90;;;;;;5056285;28;20044;-86
2022/03/29 08:57:54;;;;;;;37.30;22.17;;;9.00;97.80;;;;;;5041935;28;20045;-86
2022/03/29 09:00:26;;;;;;;37.30;22.52;;;9.00;99.90;;;;;;5056071;28;20592;-86
2022/03/29 09:02:57;;;;;;;41.30;22.30;;;8.80;65.50;;;;;;5040703;28;20036;-87
2022/03/29 09:05:27;;;;;;;37.20;22.48;;;8.50;99.90;;;;;;5036744;28;20685;-86
2022/03/29 09:07:58;;;;;;;38.45;22.75;;;9.00;99.90;;;;;;5055667;28;20404;-85
2022/03/29 09:10:38;;;;;;;34.25;21.60;;;9.20;99.90;;;;;;5039373;28;20116;-86
2022/03/29 09:13:35;;;;;;;38.08;22.08;;;9.00;93.20;;;;;;5055578;28;20149;-86
2022/03/29 09:16:02;;;;;;;39.83;21.02;;;8.90;61.20;;;;;;5024384;28;20045;-86
2022/03/29 09:18:29;;;;;;;41.97;21.92;;;8.60;1.00;;;;;;5039498;28;20039;-87
2022/03/29 09:21:14;;;;;;;34.13;20.63;;;8.70;1.00;;;;;;5052371;28;20025;-85
2022/03/29 09:24:05;;;;;;;32.60;20.67;;;9.10;42.80;;;;;;5053877;28;20033;-87
2022/03/29 09:26:42;;;;;;;36.63;20.35;;;9.00;1.00;;;;;;5039043;28;20648;-86
2022/03/29 09:29:23;;;;;;;30.80;19.67;;;8.90;1.00;;;;;;5038456;28;20047;-86
2022/03/29 09:32:17;;;;;;;34.65;20.00;;;9.10;1.00;;;;;;5036397;28;20115;-86
2022/03/29 09:35:15;;;;;;;37.08;21.90;;;9.00;1.00;;;;;;5052278;28;20087;-86
2022/03/29 09:37:52;;;;;;;35.03;20.33;;;9.00;1.00;;;;;;5054164;28;20043;-86
2022/03/29 09:40:24;;;;;;;;;;;9.00;1.00;;;;;;5072319;28;20527;-86
2022/03/29 09:43:05;;;;;;;36.60;18.65;;;9.10;1.00;;;;;;5066722;28;20379;-86
2022/03/29 09:45:45;;;;;;;38.13;18.98;;;9.10;1.00;;;;;;5052819;28;20029;-87
2022/03/29 09:48:42;;;;;;;32.53;18.17;;;9.50;9.60;;;;;;5050569;28;20045;-86
2022/03/29 09:51:08;;;;;;;29.48;16.40;;;9.70;1.00;;;;;;5054215;28;20086;-86
2022/03/29 09:53:43;;;;;;;29.95;16.35;;;9.70;1.00;;;;;;5038431;28;20049;-86
2022/03/29 09:56:15;;;;;;;27.98;15.55;;;9.90;1.00;;;;;;5054637;28;20101;-87
2022/03/29 09:58:43;;;;;;;;;;;9.70;99.90;;;;;;5039462;28;20483;-86
2022/03/29 10:01:31;;;;;;;30.33;15.20;;;10.30;99.90;;;;;;5052684;28;20174;-86
2022/03/29 10:04:02;;;;;;;27.50;15.15;;;11.00;99.90;;;;;;5049796;28;20112;-86
2022/03/29 10:06:37;;;;;;;25.65;15.10;;;12.20;99.90;;;;;;5038289;28;20040;-86
2022/03/29 10:11:50;;;;;;;28.08;15.07;;;11.30;99.90;;;;;;5067185;28;20044;-87
2022/03/29 10:14:29;;;;;;;27.83;14.10;;;11.10;99.90;;;;;;5036844;28;20445;-87
2022/03/29 10:16:56;;;;;;;25.98;12.98;;;10.80;99.90;;;;;;5036700;28;20036;-87
2022/03/29 10:19:26;;;;;;;23.67;13.32;;;10.60;1.00;;;;;;5052299;28;20033;-87
2022/03/29 10:21:57;;;;;;;23.55;12.65;;;11.40;99.90;;;;;;5035768;28;20068;-87
2022/03/29 10:24:32;;;;;;;26.02;12.32;;;11.90;99.90;;;;;;5041820;28;20067;-87
2022/03/29 10:27:00;;;;;;;25.48;12.35;;;12.20;99.90;;;;;;5040523;28;20072;-87
2022/03/29 10:29:30;;;;;;;24.98;12.27;;;11.90;99.90;;;;;;5039857;28;20390;-87
2022/03/29 10:31:57;;;;;;;25.33;12.45;;;11.10;99.90;;;;;;5041415;28;20044;-86
2022/03/29 10:34:44;;;;;;;27.42;11.98;;;11.30;1.00;;;;;;5042443;28;20051;-87
2022/03/29 10:37:19;;;;;;;25.17;12.07;;;11.30;99.90;;;;;;5057409;28;20032;-87
2022/03/29 10:40:18;;;;;;;23.50;12.93;;;10.80;99.90;;;;;;5058517;28;20041;-86
2022/03/29 10:42:46;;;;;;;25.42;11.95;;;10.60;99.90;;;;;;5032255;28;20055;-87
2022/03/29 10:45:25;;;;;;;19.88;11.73;;;11.00;99.90;;;;;;5042884;28;20077;-86
2022/03/29 10:48:03;;;;;;;28.23;12.35;;;11.00;99.90;;;;;;5042546;28;20083;-88
2022/03/29 10:50:57;;;;;;;23.48;12.45;;;11.10;99.90;;;;;;5042578;28;20594;-88
2022/03/29 10:53:37;;;;;;;22.75;12.00;;;10.60;99.90;;;;;;5053288;28;20344;-87
2022/03/29 10:56:19;;;;;;;26.60;11.60;;;11.20;99.90;;;;;;5057079;28;20040;-87
2022/03/29 10:59:09;;;;;;;20.45;11.27;;;11.50;99.90;;;;;;5050570;28;20148;-87
2022/03/29 11:01:37;;;;;;;19.45;11.68;;;11.90;99.90;;;;;;5043070;28;20083;-87
2022/03/29 11:04:06;;;;;;;25.92;11.85;;;12.30;99.90;;;;;;5041914;28;20121;-87
2022/03/29 11:06:58;;;;;;;20.23;11.55;;;12.20;99.90;;;;;;5040350;28;20106;-87
2022/03/29 11:09:24;;;;;;;27.52;12.65;;;12.10;70.90;;;;;;5057156;28;20063;-86
2022/03/29 11:11:55;;;;;;;29.30;12.07;;;11.00;99.90;;;;;;5059055;28;20032;-87
2022/03/29 11:14:30;;;;;;;23.10;11.35;;;11.50;1.00;;;;;;5039946;28;20040;-87
2022/03/29 11:17:08;;;;;;;;;;;11.80;14.30;;;;;;5042705;28;20376;-88
2022/03/29 11:19:48;;;;;;;23.38;11.48;;;11.20;46.80;;;;;;5056167;28;20300;-87
2022/03/29 11:22:24;;;;;;;22.83;10.57;;;10.90;68.00;;;;;;5053578;28;20090;-87
2022/03/29 11:25:29;;;;;;;22.58;10.30;;;11.90;99.50;;;;;;5043196;28;20060;-88
2022/03/29 11:27:48;;;;;;;21.55;11.25;;;11.90;99.90;;;;;;5052106;28;20032;-87
2022/03/29 11:30:15;;;;;;;22.83;11.30;;;11.40;99.90;;;;;;5054067;28;20079;-88
2022/03/29 11:32:45;;;;;;;22.88;10.52;;;11.00;87.20;;;;;;5054226;28;20076;-86
2022/03/29 11:35:19;;;;;;;21.60;10.88;;;12.10;99.90;;;;;;5054103;28;20041;-88
2022/03/29 11:37:49;;;;;;;27.52;11.45;;;12.70;99.90;;;;;;5039515;28;20032;-86
2022/03/29 11:40:21;;;;;;;22.08;10.73;;;11.10;3.60;;;;;;5040955;28;20122;-87
2022/03/29 11:42:51;;;;;;;;;;;11.20;1.00;;;;;;5046394;28;20814;-88
2022/03/29 11:45:26;;;;;;;20.65;10.98;;;11.70;24.00;;;;;;5033878;28;19969;-88
2022/03/29 11:48:12;;;;;;;23.42;10.70;;;10.70;1.00;;;;;;5055192;28;20136;-86
2022/03/29 11:50:49;;;;;;;22.98;11.15;;;11.50;1.00;;;;;;5054924;28;20480;-86
2022/03/29 11:53:24;;;;;;;21.75;10.73;;;11.20;1.00;;;;;;5055879;28;20113;-86
2022/03/29 11:56:01;;;;;;;19.42;10.68;;;11.20;1.00;;;;;;5041857;28;20387;-88
2022/03/29 11:58:51;;;;;;;22.92;10.15;;;11.90;1.00;;;;;;5037147;28;20029;-86
2022/03/29 12:01:21;;;;;;;21.17;9.55;;;11.70;1.00;;;;;;5058234;28;20487;-87
2022/03/29 12:04:00;;;;;;;25.23;10.10;;;11.60;1.00;;;;;;5056990;28;20636;-87
2022/03/29 12:06:45;;;;;;;21.45;8.88;;;11.50;24.40;;;;;;5039828;28;20119;-87
2022/03/29 12:09:21;;;;;;;24.20;8.85;;;11.30;11.20;;;;;;5054695;28;20048;-87
2022/03/29 12:11:47;;;;;;;20.60;8.20;;;11.20;99.90;;;;;;5055720;28;20033;-88
2022/03/29 12:14:19;;;;;;;23.05;8.32;;;11.60;47.30;;;;;;5051965;28;20260;-87
2022/03/29 12:16:54;;;;;;;19.77;8.60;;;11.00;82.00;;;;;;5041238;28;20040;-87
2022/03/29 12:19:25;;;;;;;19.95;8.77;;;11.00;99.90;;;;;;5057243;28;20094;-87
2022/03/29 12:21:59;;;;;;;19.17;8.32;;;10.70;99.90;;;;;;5071645;28;20124;-88
2022/03/29 12:24:35;;;;;;;20.20;8.57;;;10.40;99.90;;;;;;5056559;28;20041;-87
2022/03/29 12:27:08;;;;;;;25.40;8.95;;;11.00;90.20;;;;;;5039741;28;20040;-87
2022/03/29 12:29:46;;;;;;;17.73;8.05;;;11.70;96.20;;;;;;5039489;28;20288;-87
2022/03/29 12:32:16;;;;;;;22.25;8.50;;;11.60;1.00;;;;;;5056986;28;20036;-87
2022/03/29 12:34:45;;;;;;;19.65;8.65;;;11.60;9.70;;;;;;5039408;28;20151;-88
2022/03/29 12:37:16;;;;;;;21.92;8.38;;;11.80;11.70;;;;;;5053374;28;20036;-87
2022/03/29 12:39:45;;;;;;;19.63;8.38;;;11.80;1.00;;;;;;5053576;28;20751;-88
2022/03/29 12:42:16;;;;;;;22.42;8.98;;;11.40;51.20;;;;;;5037111;28;20469;-88
2022/03/29 12:44:46;;;;;;;19.80;8.85;;;11.30;9.70;;;;;;5038678;28;20131;-87
2022/03/29 12:47:16;;;;;;;21.25;8.98;;;11.60;1.00;;;;;;5037561;28;20048;-88
2022/03/29 12:49:51;;;;;;;19.42;8.85;;;11.80;43.60;;;;;;5047935;28;20083;-88
2022/03/29 12:52:20;;;;;;;18.40;9.30;;;11.40;1.00;;;;;;5042551;28;20306;-87
2022/03/29 12:54:57;;;;;;;18.85;9.00;;;11.00;1.00;;;;;;5039914;28;22549;-87
2022/03/29 12:57:35;;;;;;;23.73;9.68;;;11.80;1.00;;;;;;5056496;28;20040;-87
2022/03/29 13:00:27;;;;;;;20.85;8.82;;;11.70;45.20;;;;;;5043568;28;20043;-86
2022/03/29 13:02:54;;;;;;;17.67;8.98;;;11.20;1.00;;;;;;5050439;28;20602;-87
2022/03/29 13:05:22;;;;;;;17.58;8.38;;;10.80;1.00;;;;;;5047952;28;20057;-87
2022/03/29 13:08:05;;;;;;;21.65;9.15;;;10.80;1.00;;;;;;5067698;28;20116;-88